RYR22UT LPPT-EIDW
Flight info
| Callsign | RYR22UT |
|---|---|
| Flight time | 2h 13m |
| Altitude | 38000 |
| Route | IXIDA DCT PINEK DCT KORUL/N0449F390 DCT AMPOP/N0445F380 DCT UPCAB DCT IJALA DCT EVRIN DCT BUNED BUNED4L |
| Aircraft | B38M/M-SADE3FGILRWY/SB1 |
Departure
| Time | 2026-05-06 20:38 |
|---|---|
| Airport | Lisbon Humberto Delgado Airport (LPPT) |
Arrival
| Time | 2026-05-06 22:51 |
|---|---|
| Airport | Dublin Airport (EIDW) |
| Time | Latitude | Longitude | Altitude | Speed | Heading |
|---|---|---|---|---|---|
| 2026-05-06 19:53 | 38.76461 | -9.13709 | 350 ft | 0 kts | 168° |
| 2026-05-06 20:27 | 38.76459 | -9.13703 | 350 ft | 4 kts | 126° |
| 2026-05-06 20:27 | 38.76469 | -9.13719 | 350 ft | 3 kts | 136° |
| 2026-05-06 20:28 | 38.76490 | -9.13739 | 360 ft | 4 kts | 155° |
| 2026-05-06 20:28 | 38.76515 | -9.13746 | 357 ft | 4 kts | 188° |
| 2026-05-06 20:28 | 38.76536 | -9.13733 | 360 ft | 4 kts | 233° |
| 2026-05-06 20:28 | 38.76543 | -9.13716 | 353 ft | 1 kts | 258° |
| 2026-05-06 20:32 | 38.76542 | -9.13718 | 350 ft | 1 kts | 258° |
| 2026-05-06 20:32 | 38.76541 | -9.13728 | 350 ft | 2 kts | 258° |
| 2026-05-06 20:32 | 38.76536 | -9.13759 | 350 ft | 5 kts | 258° |
| 2026-05-06 20:32 | 38.76528 | -9.13807 | 355 ft | 6 kts | 258° |
| 2026-05-06 20:33 | 38.76520 | -9.13855 | 350 ft | 4 kts | 258° |
| 2026-05-06 20:33 | 38.76517 | -9.13898 | 350 ft | 6 kts | 281° |
| 2026-05-06 20:33 | 38.76548 | -9.13931 | 349 ft | 7 kts | 335° |
| 2026-05-06 20:33 | 38.76569 | -9.13974 | 350 ft | 5 kts | 258° |
| 2026-05-06 20:34 | 38.76553 | -9.14018 | 353 ft | 6 kts | 236° |
| 2026-05-06 20:34 | 38.76523 | -9.14065 | 349 ft | 7 kts | 229° |
| 2026-05-06 20:34 | 38.76497 | -9.14128 | 355 ft | 10 kts | 255° |
| 2026-05-06 20:34 | 38.76510 | -9.14220 | 347 ft | 10 kts | 293° |
| 2026-05-06 20:35 | 38.76514 | -9.14233 | 343 ft | 1 kts | 293° |
| 2026-05-06 20:35 | 38.76514 | -9.14235 | 343 ft | 0 kts | 293° |
| 2026-05-06 20:35 | 38.76520 | -9.14251 | 346 ft | 5 kts | 293° |
| 2026-05-06 20:35 | 38.76542 | -9.14319 | 339 ft | 11 kts | 293° |
| 2026-05-06 20:36 | 38.76580 | -9.14392 | 338 ft | 10 kts | 327° |
| 2026-05-06 20:36 | 38.76635 | -9.14392 | 338 ft | 9 kts | 18° |
| 2026-05-06 20:36 | 38.76645 | -9.14387 | 336 ft | 0 kts | 21° |
| 2026-05-06 20:36 | 38.76647 | -9.14386 | 336 ft | 1 kts | 21° |
| 2026-05-06 20:37 | 38.76655 | -9.14382 | 338 ft | 2 kts | 21° |
| 2026-05-06 20:37 | 38.76868 | -9.14269 | 347 ft | 75 kts | 22° |
| 2026-05-06 20:37 | 38.77598 | -9.13881 | 370 ft | 150 kts | 22° |
| 2026-05-06 20:37 | 38.78663 | -9.13305 | 875 ft | 178 kts | 20° |
| 2026-05-06 20:38 | 38.79846 | -9.12650 | 1646 ft | 189 kts | 20° |
| 2026-05-06 20:38 | 38.81059 | -9.11931 | 2553 ft | 204 kts | 22° |
| 2026-05-06 20:38 | 38.82384 | -9.10974 | 3121 ft | 225 kts | 27° |
| 2026-05-06 20:38 | 38.83770 | -9.09923 | 3577 ft | 238 kts | 27° |
| 2026-05-06 20:39 | 38.85255 | -9.08799 | 4254 ft | 256 kts | 27° |
| 2026-05-06 20:39 | 38.86834 | -9.07605 | 5008 ft | 268 kts | 30° |
| 2026-05-06 20:39 | 38.88433 | -9.06392 | 5955 ft | 273 kts | 31° |
| 2026-05-06 20:39 | 38.90033 | -9.05032 | 6826 ft | 277 kts | 41° |
| 2026-05-06 20:40 | 38.91523 | -9.03437 | 7721 ft | 282 kts | 29° |
| 2026-05-06 20:40 | 38.93407 | -9.02775 | 8624 ft | 283 kts | 2° |
| 2026-05-06 20:40 | 38.95376 | -9.02603 | 9455 ft | 290 kts | 5° |
| 2026-05-06 20:40 | 38.97396 | -9.02338 | 10309 ft | 295 kts | 5° |
| 2026-05-06 20:41 | 38.99506 | -9.02049 | 10763 ft | 314 kts | 5° |
| 2026-05-06 20:41 | 39.01732 | -9.01731 | 11273 ft | 328 kts | 5° |
| 2026-05-06 20:41 | 39.04031 | -9.01399 | 11961 ft | 335 kts | 5° |
| 2026-05-06 20:41 | 39.06371 | -9.01066 | 12758 ft | 339 kts | 4° |
| 2026-05-06 20:42 | 39.08700 | -9.00734 | 13563 ft | 342 kts | 5° |
| 2026-05-06 20:42 | 39.11095 | -9.00392 | 14270 ft | 348 kts | 5° |
| 2026-05-06 20:42 | 39.13528 | -9.00047 | 14941 ft | 353 kts | 5° |
| 2026-05-06 20:42 | 39.15986 | -8.99695 | 15683 ft | 356 kts | 5° |
| 2026-05-06 20:43 | 39.18468 | -8.99341 | 16348 ft | 362 kts | 4° |
| 2026-05-06 20:43 | 39.20966 | -8.98984 | 17043 ft | 366 kts | 4° |
| 2026-05-06 20:43 | 39.23511 | -8.98622 | 17738 ft | 370 kts | 4° |
| 2026-05-06 20:43 | 39.26099 | -8.98253 | 18330 ft | 376 kts | 4° |
| 2026-05-06 20:44 | 39.28701 | -8.97879 | 18953 ft | 378 kts | 5° |
| 2026-05-06 20:44 | 39.31340 | -8.97502 | 19529 ft | 382 kts | 4° |
| 2026-05-06 20:44 | 39.33955 | -8.97127 | 20076 ft | 385 kts | 5° |
| 2026-05-06 20:44 | 39.36627 | -8.96743 | 20704 ft | 387 kts | 5° |
| 2026-05-06 20:45 | 39.39328 | -8.96356 | 21203 ft | 392 kts | 4° |
| 2026-05-06 20:45 | 39.42044 | -8.95965 | 21809 ft | 394 kts | 5° |
| 2026-05-06 20:45 | 39.44786 | -8.95571 | 22329 ft | 398 kts | 5° |
| 2026-05-06 20:45 | 39.47546 | -8.95174 | 22872 ft | 401 kts | 5° |
| 2026-05-06 20:46 | 39.50336 | -8.94772 | 23395 ft | 404 kts | 5° |
| 2026-05-06 20:46 | 39.53141 | -8.94368 | 23793 ft | 409 kts | 5° |
| 2026-05-06 20:46 | 39.55992 | -8.93956 | 23930 ft | 410 kts | 5° |
| 2026-05-06 20:46 | 39.58836 | -8.93546 | 23962 ft | 410 kts | 5° |
| 2026-05-06 20:47 | 39.61644 | -8.93140 | 24048 ft | 411 kts | 5° |
| 2026-05-06 20:47 | 39.64492 | -8.92730 | 24492 ft | 412 kts | 5° |
| 2026-05-06 20:47 | 39.67367 | -8.92314 | 24925 ft | 415 kts | 5° |
| 2026-05-06 20:47 | 39.70250 | -8.91897 | 25364 ft | 417 kts | 5° |
| 2026-05-06 20:48 | 39.73108 | -8.91483 | 25799 ft | 420 kts | 5° |
| 2026-05-06 20:48 | 39.76037 | -8.91058 | 26199 ft | 423 kts | 5° |
| 2026-05-06 20:48 | 39.78983 | -8.90631 | 26587 ft | 426 kts | 5° |
| 2026-05-06 20:48 | 39.81941 | -8.90202 | 26975 ft | 429 kts | 5° |
| 2026-05-06 20:49 | 39.84890 | -8.89773 | 27350 ft | 432 kts | 5° |
| 2026-05-06 20:49 | 39.87885 | -8.89337 | 27735 ft | 434 kts | 5° |
| 2026-05-06 20:49 | 39.90899 | -8.88898 | 28110 ft | 437 kts | 4° |
| 2026-05-06 20:49 | 39.93950 | -8.88453 | 28486 ft | 440 kts | 5° |
| 2026-05-06 20:50 | 39.97007 | -8.88007 | 28850 ft | 442 kts | 5° |
| 2026-05-06 20:50 | 40.00042 | -8.87564 | 29194 ft | 445 kts | 5° |
| 2026-05-06 20:50 | 40.03140 | -8.87112 | 29538 ft | 448 kts | 4° |
| 2026-05-06 20:50 | 40.06253 | -8.86656 | 29880 ft | 450 kts | 4° |
| 2026-05-06 20:51 | 40.09372 | -8.86200 | 30177 ft | 453 kts | 4° |
| 2026-05-06 20:51 | 40.12513 | -8.85740 | 30460 ft | 455 kts | 4° |
| 2026-05-06 20:51 | 40.15628 | -8.85282 | 30774 ft | 457 kts | 5° |
| 2026-05-06 20:51 | 40.18835 | -8.84812 | 31099 ft | 458 kts | 4° |
| 2026-05-06 20:52 | 40.21975 | -8.84351 | 31358 ft | 460 kts | 4° |
| 2026-05-06 20:52 | 40.25165 | -8.83882 | 31641 ft | 462 kts | 4° |
| 2026-05-06 20:52 | 40.28378 | -8.83409 | 31913 ft | 464 kts | 4° |
| 2026-05-06 20:52 | 40.31597 | -8.82935 | 32178 ft | 466 kts | 4° |
| 2026-05-06 20:53 | 40.34827 | -8.82458 | 32440 ft | 468 kts | 4° |
| 2026-05-06 20:53 | 40.38083 | -8.81978 | 32705 ft | 470 kts | 4° |
| 2026-05-06 20:53 | 40.41346 | -8.81496 | 32976 ft | 472 kts | 4° |
| 2026-05-06 20:53 | 40.44562 | -8.81021 | 33317 ft | 471 kts | 4° |
| 2026-05-06 20:54 | 40.47826 | -8.80538 | 33684 ft | 471 kts | 4° |
| 2026-05-06 20:54 | 40.51093 | -8.80055 | 34009 ft | 471 kts | 4° |
| 2026-05-06 20:54 | 40.54364 | -8.79570 | 34300 ft | 470 kts | 4° |
| 2026-05-06 20:54 | 40.57549 | -8.79097 | 34601 ft | 469 kts | 4° |
| 2026-05-06 20:55 | 40.60808 | -8.78613 | 34949 ft | 467 kts | 4° |
| 2026-05-06 20:55 | 40.64034 | -8.78134 | 35269 ft | 466 kts | 4° |
| 2026-05-06 20:55 | 40.67265 | -8.77653 | 35563 ft | 465 kts | 4° |
| 2026-05-06 20:55 | 40.70473 | -8.77175 | 35850 ft | 464 kts | 4° |
| 2026-05-06 20:56 | 40.73685 | -8.76696 | 35973 ft | 465 kts | 4° |
| 2026-05-06 20:56 | 40.80099 | -8.75738 | 35956 ft | 461 kts | 4° |
| 2026-05-06 20:57 | 40.86489 | -8.74781 | 35938 ft | 461 kts | 4° |
| 2026-05-06 20:57 | 40.92835 | -8.73830 | 35938 ft | 461 kts | 4° |
| 2026-05-06 20:58 | 40.99218 | -8.72871 | 35938 ft | 461 kts | 4° |
| 2026-05-06 20:58 | 41.05597 | -8.71911 | 35942 ft | 461 kts | 4° |
| 2026-05-06 20:59 | 41.11979 | -8.70948 | 35940 ft | 462 kts | 4° |
| 2026-05-06 20:59 | 41.18346 | -8.69985 | 35938 ft | 462 kts | 4° |
| 2026-05-06 21:00 | 41.24746 | -8.69016 | 35948 ft | 462 kts | 4° |
| 2026-05-06 21:00 | 41.31107 | -8.68050 | 35939 ft | 461 kts | 4° |
| 2026-05-06 21:01 | 41.37493 | -8.67079 | 35943 ft | 461 kts | 4° |
| 2026-05-06 21:01 | 41.43883 | -8.66106 | 35939 ft | 461 kts | 4° |
| 2026-05-06 21:02 | 41.50227 | -8.65137 | 35942 ft | 461 kts | 5° |
| 2026-05-06 21:02 | 41.56605 | -8.64162 | 35947 ft | 460 kts | 5° |
| 2026-05-06 21:03 | 41.62988 | -8.63183 | 35948 ft | 461 kts | 5° |
| 2026-05-06 21:03 | 41.69326 | -8.62210 | 35955 ft | 460 kts | 5° |
| 2026-05-06 21:04 | 41.75701 | -8.61229 | 35944 ft | 459 kts | 5° |
| 2026-05-06 21:04 | 41.82029 | -8.60254 | 35947 ft | 460 kts | 5° |
| 2026-05-06 21:04 | 41.85192 | -8.59571 | 36094 ft | 462 kts | 16° |
| 2026-05-06 21:05 | 41.88198 | -8.58038 | 36422 ft | 461 kts | 20° |
| 2026-05-06 21:05 | 41.91204 | -8.56481 | 36563 ft | 463 kts | 20° |
| 2026-05-06 21:05 | 41.94170 | -8.54925 | 36792 ft | 463 kts | 20° |
| 2026-05-06 21:05 | 41.97173 | -8.53327 | 37015 ft | 464 kts | 20° |
| 2026-05-06 21:06 | 42.00177 | -8.51720 | 37242 ft | 463 kts | 20° |
| 2026-05-06 21:06 | 42.03177 | -8.50112 | 37474 ft | 463 kts | 20° |
| 2026-05-06 21:06 | 42.06162 | -8.48509 | 37703 ft | 463 kts | 20° |
| 2026-05-06 21:06 | 42.09157 | -8.46899 | 37913 ft | 462 kts | 20° |
| 2026-05-06 21:07 | 42.12145 | -8.45291 | 38009 ft | 463 kts | 20° |
| 2026-05-06 21:07 | 42.18086 | -8.42089 | 37967 ft | 460 kts | 20° |
| 2026-05-06 21:08 | 42.24059 | -8.38864 | 37972 ft | 461 kts | 20° |
| 2026-05-06 21:08 | 42.29977 | -8.35662 | 37968 ft | 461 kts | 20° |
| 2026-05-06 21:09 | 42.35949 | -8.32424 | 37979 ft | 462 kts | 20° |
| 2026-05-06 21:09 | 42.41897 | -8.29193 | 37981 ft | 462 kts | 20° |
| 2026-05-06 21:10 | 42.47871 | -8.25940 | 37985 ft | 462 kts | 20° |
| 2026-05-06 21:10 | 42.53841 | -8.22683 | 37988 ft | 462 kts | 20° |
| 2026-05-06 21:11 | 42.59780 | -8.19437 | 37985 ft | 462 kts | 20° |
| 2026-05-06 21:11 | 42.65747 | -8.16168 | 37992 ft | 462 kts | 20° |
| 2026-05-06 21:12 | 42.71714 | -8.12892 | 37988 ft | 462 kts | 20° |
| 2026-05-06 21:12 | 42.77657 | -8.09624 | 37995 ft | 462 kts | 20° |
| 2026-05-06 21:13 | 42.83629 | -8.06332 | 37995 ft | 462 kts | 20° |
| 2026-05-06 21:13 | 42.89556 | -8.03058 | 38001 ft | 462 kts | 20° |
| 2026-05-06 21:14 | 42.95525 | -7.99754 | 38008 ft | 462 kts | 20° |
| 2026-05-06 21:14 | 43.01491 | -7.96445 | 38000 ft | 461 kts | 20° |
| 2026-05-06 21:15 | 43.07416 | -7.93151 | 38001 ft | 461 kts | 20° |
| 2026-05-06 21:15 | 43.13379 | -7.89830 | 38000 ft | 462 kts | 21° |
| 2026-05-06 21:16 | 43.19297 | -7.86527 | 38011 ft | 461 kts | 21° |
| 2026-05-06 21:16 | 43.25236 | -7.83205 | 38012 ft | 460 kts | 21° |
| 2026-05-06 21:17 | 43.31192 | -7.79866 | 38007 ft | 461 kts | 21° |
| 2026-05-06 21:17 | 43.37083 | -7.76556 | 38019 ft | 461 kts | 21° |
| 2026-05-06 21:18 | 43.43025 | -7.73212 | 38014 ft | 460 kts | 21° |
| 2026-05-06 21:18 | 43.48955 | -7.69867 | 38015 ft | 460 kts | 21° |
| 2026-05-06 21:19 | 43.54847 | -7.66536 | 38019 ft | 460 kts | 21° |
| 2026-05-06 21:19 | 43.59787 | -7.63737 | 38033 ft | 460 kts | 21° |
| 2026-05-06 21:20 | 43.65705 | -7.60379 | 38010 ft | 459 kts | 21° |
| 2026-05-06 21:20 | 43.71621 | -7.57014 | 38015 ft | 460 kts | 21° |
| 2026-05-06 21:21 | 43.77525 | -7.53649 | 38019 ft | 460 kts | 21° |
| 2026-05-06 21:21 | 43.83450 | -7.50265 | 38010 ft | 460 kts | 21° |
| 2026-05-06 21:22 | 43.89375 | -7.46873 | 38013 ft | 460 kts | 21° |
| 2026-05-06 21:22 | 43.95248 | -7.43505 | 38012 ft | 460 kts | 21° |
| 2026-05-06 21:23 | 44.01186 | -7.40090 | 38019 ft | 459 kts | 21° |
| 2026-05-06 21:23 | 44.07068 | -7.36701 | 38012 ft | 459 kts | 21° |
| 2026-05-06 21:24 | 44.12982 | -7.33288 | 38012 ft | 459 kts | 21° |
| 2026-05-06 21:24 | 44.18856 | -7.29888 | 38019 ft | 459 kts | 21° |
| 2026-05-06 21:25 | 44.24755 | -7.26467 | 38017 ft | 458 kts | 21° |
| 2026-05-06 21:25 | 44.30644 | -7.23045 | 38018 ft | 458 kts | 21° |
| 2026-05-06 21:26 | 44.36516 | -7.19625 | 38014 ft | 459 kts | 21° |
| 2026-05-06 21:26 | 44.42413 | -7.16183 | 38020 ft | 459 kts | 21° |
| 2026-05-06 21:27 | 44.48308 | -7.12734 | 38018 ft | 458 kts | 21° |
| 2026-05-06 21:27 | 44.54184 | -7.09290 | 38018 ft | 459 kts | 21° |
| 2026-05-06 21:28 | 44.60069 | -7.05833 | 38018 ft | 459 kts | 21° |
| 2026-05-06 21:28 | 44.65964 | -7.02363 | 38020 ft | 459 kts | 21° |
| 2026-05-06 21:29 | 44.71834 | -6.98901 | 38021 ft | 459 kts | 21° |
| 2026-05-06 21:29 | 44.77722 | -6.95421 | 38021 ft | 459 kts | 21° |
| 2026-05-06 21:30 | 44.83627 | -6.92178 | 37998 ft | 455 kts | 10° |
| 2026-05-06 21:30 | 44.89896 | -6.91078 | 37995 ft | 455 kts | 5° |
| 2026-05-06 21:31 | 44.96160 | -6.90080 | 38032 ft | 455 kts | 4° |
| 2026-05-06 21:31 | 45.02460 | -6.89124 | 38024 ft | 454 kts | 4° |
| 2026-05-06 21:32 | 45.08754 | -6.88172 | 38024 ft | 454 kts | 4° |
| 2026-05-06 21:32 | 45.18191 | -6.86741 | 38036 ft | 454 kts | 4° |
| 2026-05-06 21:33 | 45.24443 | -6.85791 | 38023 ft | 453 kts | 4° |
| 2026-05-06 21:33 | 45.30713 | -6.84835 | 38029 ft | 453 kts | 4° |
| 2026-05-06 21:34 | 45.37004 | -6.83875 | 38029 ft | 453 kts | 4° |
| 2026-05-06 21:34 | 45.43243 | -6.82920 | 38030 ft | 453 kts | 5° |
| 2026-05-06 21:35 | 45.49515 | -6.81958 | 38029 ft | 453 kts | 5° |
| 2026-05-06 21:35 | 45.55788 | -6.80994 | 38028 ft | 453 kts | 5° |
| 2026-05-06 21:36 | 45.62024 | -6.80034 | 38027 ft | 452 kts | 5° |
| 2026-05-06 21:36 | 45.68240 | -6.79074 | 38030 ft | 452 kts | 5° |
| 2026-05-06 21:37 | 45.74526 | -6.78101 | 38029 ft | 452 kts | 5° |
| 2026-05-06 21:37 | 45.80755 | -6.77135 | 38032 ft | 452 kts | 5° |
| 2026-05-06 21:38 | 45.87012 | -6.76163 | 38030 ft | 451 kts | 5° |
| 2026-05-06 21:38 | 45.93261 | -6.75189 | 38029 ft | 451 kts | 5° |
| 2026-05-06 21:39 | 45.99490 | -6.74216 | 38029 ft | 451 kts | 5° |
| 2026-05-06 21:39 | 46.05733 | -6.73239 | 38029 ft | 451 kts | 5° |
| 2026-05-06 21:40 | 46.11998 | -6.72257 | 38029 ft | 451 kts | 5° |
| 2026-05-06 21:40 | 46.18207 | -6.71280 | 38040 ft | 451 kts | 5° |
| 2026-05-06 21:41 | 46.24463 | -6.70294 | 38027 ft | 450 kts | 5° |
| 2026-05-06 21:41 | 46.30678 | -6.69313 | 38029 ft | 451 kts | 5° |
| 2026-05-06 21:42 | 46.36919 | -6.68325 | 38028 ft | 451 kts | 5° |
| 2026-05-06 21:42 | 46.43162 | -6.67334 | 38027 ft | 450 kts | 5° |
| 2026-05-06 21:43 | 46.49368 | -6.66347 | 38029 ft | 450 kts | 5° |
| 2026-05-06 21:43 | 46.55615 | -6.65352 | 38029 ft | 450 kts | 5° |
| 2026-05-06 21:44 | 46.61813 | -6.64361 | 38029 ft | 450 kts | 5° |
| 2026-05-06 21:44 | 46.68057 | -6.63362 | 38029 ft | 450 kts | 5° |
| 2026-05-06 21:45 | 46.74264 | -6.62366 | 38032 ft | 450 kts | 5° |
| 2026-05-06 21:45 | 46.80520 | -6.61359 | 38036 ft | 450 kts | 5° |
| 2026-05-06 21:46 | 46.86706 | -6.60361 | 38032 ft | 450 kts | 5° |
| 2026-05-06 21:46 | 46.92942 | -6.59353 | 38032 ft | 450 kts | 5° |
| 2026-05-06 21:47 | 46.99148 | -6.58348 | 38037 ft | 450 kts | 5° |
| 2026-05-06 21:47 | 47.05389 | -6.57335 | 38032 ft | 450 kts | 5° |
| 2026-05-06 21:48 | 47.11605 | -6.56323 | 38031 ft | 450 kts | 5° |
| 2026-05-06 21:48 | 47.17840 | -6.55305 | 38029 ft | 450 kts | 5° |
| 2026-05-06 21:49 | 47.24023 | -6.54294 | 38016 ft | 449 kts | 5° |
| 2026-05-06 21:49 | 47.30259 | -6.53272 | 38033 ft | 449 kts | 5° |
| 2026-05-06 21:50 | 47.36455 | -6.52254 | 38028 ft | 449 kts | 5° |
| 2026-05-06 21:50 | 47.42678 | -6.51229 | 38035 ft | 449 kts | 5° |
| 2026-05-06 21:51 | 47.48901 | -6.50202 | 38021 ft | 449 kts | 5° |
| 2026-05-06 21:51 | 47.55082 | -6.49179 | 38022 ft | 449 kts | 5° |
| 2026-05-06 21:52 | 47.61305 | -6.48147 | 38035 ft | 449 kts | 5° |
| 2026-05-06 21:52 | 47.67553 | -6.47108 | 38034 ft | 449 kts | 5° |
| 2026-05-06 21:53 | 47.73725 | -6.46079 | 38035 ft | 449 kts | 5° |
| 2026-05-06 21:53 | 47.79953 | -6.45038 | 38034 ft | 449 kts | 5° |
| 2026-05-06 21:54 | 47.86182 | -6.43995 | 38035 ft | 449 kts | 5° |
| 2026-05-06 21:54 | 47.92349 | -6.42960 | 38027 ft | 448 kts | 5° |
| 2026-05-06 21:55 | 47.98565 | -6.41914 | 38022 ft | 448 kts | 5° |
| 2026-05-06 21:55 | 48.04766 | -6.40868 | 38032 ft | 448 kts | 5° |
| 2026-05-06 21:56 | 48.10934 | -6.39825 | 38029 ft | 447 kts | 5° |
| 2026-05-06 21:56 | 48.17118 | -6.38776 | 38025 ft | 447 kts | 5° |
| 2026-05-06 21:57 | 48.23324 | -6.37722 | 38020 ft | 447 kts | 5° |
| 2026-05-06 21:57 | 48.29513 | -6.36667 | 38035 ft | 447 kts | 5° |
| 2026-05-06 21:58 | 48.35662 | -6.35617 | 38029 ft | 446 kts | 5° |
| 2026-05-06 21:58 | 48.41831 | -6.34561 | 38025 ft | 446 kts | 5° |
| 2026-05-06 21:59 | 48.48010 | -6.33501 | 38029 ft | 446 kts | 5° |
| 2026-05-06 21:59 | 48.54145 | -6.32446 | 38027 ft | 446 kts | 5° |
| 2026-05-06 22:00 | 48.60314 | -6.31382 | 38019 ft | 446 kts | 5° |
| 2026-05-06 22:00 | 48.66481 | -6.30316 | 38023 ft | 446 kts | 5° |
| 2026-05-06 22:01 | 48.72614 | -6.29253 | 38023 ft | 446 kts | 5° |
| 2026-05-06 22:01 | 48.78794 | -6.28181 | 38021 ft | 446 kts | 5° |
| 2026-05-06 22:02 | 48.84950 | -6.27910 | 38024 ft | 445 kts | 359° |
| 2026-05-06 22:02 | 48.91158 | -6.27902 | 38026 ft | 445 kts | 359° |
| 2026-05-06 22:03 | 48.97358 | -6.27900 | 38021 ft | 445 kts | 359° |
| 2026-05-06 22:03 | 49.03512 | -6.27900 | 38019 ft | 445 kts | 359° |
| 2026-05-06 22:04 | 49.09704 | -6.27534 | 37997 ft | 445 kts | 12° |
| 2026-05-06 22:04 | 49.15724 | -6.25283 | 38028 ft | 445 kts | 10° |
| 2026-05-06 22:05 | 49.21851 | -6.23541 | 38019 ft | 447 kts | 9° |
| 2026-05-06 22:05 | 49.27940 | -6.21885 | 38022 ft | 447 kts | 9° |
| 2026-05-06 22:06 | 49.34072 | -6.20224 | 38020 ft | 446 kts | 9° |
| 2026-05-06 22:06 | 49.40160 | -6.18573 | 38021 ft | 446 kts | 9° |
| 2026-05-06 22:07 | 49.45260 | -6.17187 | 38021 ft | 446 kts | 9° |
| 2026-05-06 22:07 | 49.52388 | -6.15315 | 38012 ft | 445 kts | 3° |
| 2026-05-06 22:08 | 49.57512 | -6.15704 | 38015 ft | 444 kts | 355° |
| 2026-05-06 22:08 | 49.63679 | -6.16357 | 38025 ft | 443 kts | 355° |
| 2026-05-06 22:09 | 49.69856 | -6.17081 | 38020 ft | 443 kts | 354° |
| 2026-05-06 22:09 | 49.75977 | -6.17810 | 38021 ft | 443 kts | 354° |
| 2026-05-06 22:10 | 49.82148 | -6.18547 | 38025 ft | 443 kts | 354° |
| 2026-05-06 22:10 | 49.88260 | -6.19280 | 38020 ft | 443 kts | 354° |
| 2026-05-06 22:11 | 49.94425 | -6.20020 | 38022 ft | 443 kts | 354° |
| 2026-05-06 22:11 | 50.00557 | -6.20759 | 38021 ft | 443 kts | 354° |
| 2026-05-06 22:12 | 50.06709 | -6.21502 | 38020 ft | 443 kts | 355° |
| 2026-05-06 22:12 | 50.12882 | -6.22249 | 38018 ft | 443 kts | 355° |
| 2026-05-06 22:13 | 50.19010 | -6.22993 | 38018 ft | 443 kts | 355° |
| 2026-05-06 22:13 | 50.25172 | -6.23743 | 38018 ft | 443 kts | 355° |
| 2026-05-06 22:14 | 50.31324 | -6.24493 | 38016 ft | 443 kts | 355° |
| 2026-05-06 22:14 | 50.37437 | -6.25241 | 38019 ft | 443 kts | 355° |
| 2026-05-06 22:15 | 50.43587 | -6.25995 | 38016 ft | 443 kts | 355° |
| 2026-05-06 22:15 | 50.49736 | -6.26750 | 38028 ft | 443 kts | 355° |
| 2026-05-06 22:16 | 50.55848 | -6.27505 | 38015 ft | 442 kts | 355° |
| 2026-05-06 22:16 | 50.61995 | -6.28264 | 38017 ft | 442 kts | 355° |
| 2026-05-06 22:17 | 50.68132 | -6.29025 | 38018 ft | 442 kts | 355° |
| 2026-05-06 22:17 | 50.74277 | -6.29788 | 38015 ft | 442 kts | 355° |
| 2026-05-06 22:18 | 50.80363 | -6.30546 | 38010 ft | 442 kts | 355° |
| 2026-05-06 22:18 | 50.86494 | -6.31312 | 38014 ft | 442 kts | 355° |
| 2026-05-06 22:19 | 50.92588 | -6.32595 | 38027 ft | 441 kts | 349° |
| 2026-05-06 22:19 | 50.98639 | -6.34351 | 38007 ft | 441 kts | 349° |
| 2026-05-06 22:20 | 51.04658 | -6.36127 | 38010 ft | 441 kts | 349° |
| 2026-05-06 22:20 | 51.10689 | -6.37913 | 38011 ft | 441 kts | 349° |
| 2026-05-06 22:21 | 51.16703 | -6.39698 | 38015 ft | 441 kts | 349° |
| 2026-05-06 22:21 | 51.22739 | -6.41495 | 38007 ft | 439 kts | 349° |
| 2026-05-06 22:22 | 51.28749 | -6.43237 | 38006 ft | 439 kts | 351° |
| 2026-05-06 22:22 | 51.34772 | -6.44795 | 38007 ft | 439 kts | 350° |
| 2026-05-06 22:23 | 51.40819 | -6.46383 | 38012 ft | 439 kts | 351° |
| 2026-05-06 22:23 | 51.46796 | -6.47960 | 38010 ft | 438 kts | 351° |
| 2026-05-06 22:24 | 51.52807 | -6.49550 | 38016 ft | 438 kts | 350° |
| 2026-05-06 22:24 | 51.58820 | -6.51145 | 38005 ft | 438 kts | 350° |
| 2026-05-06 22:25 | 51.64828 | -6.52743 | 38012 ft | 437 kts | 350° |
| 2026-05-06 22:25 | 51.70758 | -6.54324 | 37843 ft | 420 kts | 350° |
| 2026-05-06 22:26 | 51.73589 | -6.55080 | 37350 ft | 416 kts | 351° |
| 2026-05-06 22:26 | 51.76446 | -6.55843 | 36739 ft | 415 kts | 351° |
| 2026-05-06 22:26 | 51.79321 | -6.56379 | 36121 ft | 414 kts | 358° |
| 2026-05-06 22:26 | 51.82192 | -6.56614 | 35595 ft | 412 kts | 358° |
| 2026-05-06 22:27 | 51.85052 | -6.56850 | 35160 ft | 408 kts | 358° |
| 2026-05-06 22:27 | 51.87873 | -6.57074 | 34714 ft | 404 kts | 359° |
| 2026-05-06 22:27 | 51.90669 | -6.57293 | 34259 ft | 402 kts | 359° |
| 2026-05-06 22:27 | 51.93378 | -6.57506 | 33738 ft | 400 kts | 359° |
| 2026-05-06 22:28 | 51.96188 | -6.57730 | 33192 ft | 397 kts | 359° |
| 2026-05-06 22:28 | 51.98933 | -6.57946 | 32724 ft | 393 kts | 359° |
| 2026-05-06 22:28 | 52.01628 | -6.58159 | 32297 ft | 389 kts | 359° |
| 2026-05-06 22:28 | 52.04321 | -6.58371 | 31866 ft | 386 kts | 359° |
| 2026-05-06 22:29 | 52.07000 | -6.58583 | 31430 ft | 382 kts | 359° |
| 2026-05-06 22:29 | 52.09624 | -6.58791 | 31001 ft | 379 kts | 358° |
| 2026-05-06 22:29 | 52.12257 | -6.58999 | 30582 ft | 376 kts | 358° |
| 2026-05-06 22:29 | 52.14865 | -6.59206 | 30170 ft | 374 kts | 358° |
| 2026-05-06 22:30 | 52.17460 | -6.59411 | 29704 ft | 371 kts | 358° |
| 2026-05-06 22:30 | 52.20026 | -6.59615 | 29281 ft | 367 kts | 358° |
| 2026-05-06 22:30 | 52.22560 | -6.59816 | 28985 ft | 361 kts | 358° |
| 2026-05-06 22:30 | 52.25044 | -6.60014 | 28669 ft | 355 kts | 357° |
| 2026-05-06 22:31 | 52.27503 | -6.60210 | 28282 ft | 352 kts | 357° |
| 2026-05-06 22:31 | 52.29935 | -6.60404 | 27894 ft | 349 kts | 357° |
| 2026-05-06 22:31 | 52.32328 | -6.60595 | 27527 ft | 346 kts | 357° |
| 2026-05-06 22:31 | 52.34726 | -6.60787 | 27144 ft | 344 kts | 357° |
| 2026-05-06 22:32 | 52.37109 | -6.60977 | 26775 ft | 341 kts | 357° |
| 2026-05-06 22:32 | 52.39482 | -6.61168 | 26408 ft | 339 kts | 357° |
| 2026-05-06 22:32 | 52.41826 | -6.61356 | 26050 ft | 337 kts | 357° |
| 2026-05-06 22:32 | 52.44191 | -6.61546 | 25692 ft | 342 kts | 357° |
| 2026-05-06 22:33 | 52.46548 | -6.61735 | 25335 ft | 345 kts | 357° |
| 2026-05-06 22:33 | 52.48963 | -6.61930 | 24969 ft | 345 kts | 357° |
| 2026-05-06 22:33 | 52.51360 | -6.62124 | 24613 ft | 344 kts | 357° |
| 2026-05-06 22:33 | 52.53752 | -6.62317 | 24253 ft | 343 kts | 357° |
| 2026-05-06 22:34 | 52.56128 | -6.62509 | 23892 ft | 341 kts | 357° |
| 2026-05-06 22:34 | 52.58491 | -6.62699 | 23539 ft | 339 kts | 356° |
| 2026-05-06 22:34 | 52.60847 | -6.62891 | 23130 ft | 337 kts | 356° |
| 2026-05-06 22:34 | 52.63191 | -6.63080 | 22601 ft | 339 kts | 356° |
| 2026-05-06 22:35 | 52.65562 | -6.63272 | 22032 ft | 342 kts | 356° |
| 2026-05-06 22:35 | 52.67945 | -6.63466 | 21553 ft | 343 kts | 356° |
| 2026-05-06 22:35 | 52.70302 | -6.63658 | 20999 ft | 342 kts | 356° |
| 2026-05-06 22:35 | 52.72694 | -6.63853 | 20433 ft | 345 kts | 356° |
| 2026-05-06 22:36 | 52.75107 | -6.64050 | 19835 ft | 349 kts | 355° |
| 2026-05-06 22:36 | 52.77544 | -6.64248 | 19246 ft | 352 kts | 355° |
| 2026-05-06 22:36 | 52.80012 | -6.64450 | 18652 ft | 356 kts | 355° |
| 2026-05-06 22:36 | 52.82498 | -6.64653 | 18020 ft | 359 kts | 355° |
| 2026-05-06 22:37 | 52.84989 | -6.64856 | 17351 ft | 362 kts | 355° |
| 2026-05-06 22:37 | 52.87516 | -6.65062 | 16726 ft | 363 kts | 355° |
| 2026-05-06 22:37 | 52.90044 | -6.65270 | 16115 ft | 364 kts | 355° |
| 2026-05-06 22:37 | 52.92584 | -6.65478 | 15501 ft | 365 kts | 355° |
| 2026-05-06 22:38 | 52.95129 | -6.65687 | 14881 ft | 367 kts | 355° |
| 2026-05-06 22:38 | 52.97664 | -6.65868 | 14238 ft | 369 kts | 359° |
| 2026-05-06 22:38 | 53.00205 | -6.65009 | 13440 ft | 377 kts | 23° |
| 2026-05-06 22:38 | 53.02323 | -6.62438 | 12710 ft | 381 kts | 49° |
| 2026-05-06 22:39 | 53.03919 | -6.58968 | 12160 ft | 377 kts | 51° |
| 2026-05-06 22:39 | 53.05536 | -6.55606 | 11700 ft | 372 kts | 51° |
| 2026-05-06 22:39 | 53.07139 | -6.52320 | 11195 ft | 359 kts | 51° |
| 2026-05-06 22:39 | 53.08705 | -6.49159 | 10620 ft | 349 kts | 47° |
| 2026-05-06 22:40 | 53.10618 | -6.46813 | 10105 ft | 336 kts | 21° |
| 2026-05-06 22:40 | 53.12852 | -6.46222 | 9721 ft | 320 kts | 353° |
| 2026-05-06 22:40 | 53.14919 | -6.47240 | 9351 ft | 303 kts | 335° |
| 2026-05-06 22:40 | 53.16851 | -6.48494 | 8955 ft | 292 kts | 337° |
| 2026-05-06 22:41 | 53.20534 | -6.50803 | 8418 ft | 272 kts | 337° |
| 2026-05-06 22:41 | 53.22214 | -6.52086 | 8280 ft | 259 kts | 324° |
| 2026-05-06 22:41 | 53.23636 | -6.53812 | 8180 ft | 246 kts | 321° |
| 2026-05-06 22:42 | 53.25005 | -6.55490 | 7861 ft | 243 kts | 321° |
| 2026-05-06 22:42 | 53.26348 | -6.57129 | 7609 ft | 236 kts | 321° |
| 2026-05-06 22:42 | 53.27648 | -6.58714 | 7319 ft | 228 kts | 321° |
| 2026-05-06 22:42 | 53.28934 | -6.60280 | 6902 ft | 227 kts | 321° |
| 2026-05-06 22:43 | 53.30202 | -6.61826 | 6522 ft | 224 kts | 320° |
| 2026-05-06 22:43 | 53.31444 | -6.63338 | 6127 ft | 222 kts | 321° |
| 2026-05-06 22:43 | 53.32695 | -6.64861 | 5678 ft | 222 kts | 321° |
| 2026-05-06 22:43 | 53.33942 | -6.66382 | 5241 ft | 221 kts | 321° |
| 2026-05-06 22:44 | 53.35189 | -6.67904 | 4807 ft | 221 kts | 322° |
| 2026-05-06 22:44 | 53.36553 | -6.69070 | 4343 ft | 224 kts | 346° |
| 2026-05-06 22:44 | 53.38105 | -6.69149 | 3937 ft | 224 kts | 2° |
| 2026-05-06 22:44 | 53.39641 | -6.68983 | 3517 ft | 223 kts | 2° |
| 2026-05-06 22:45 | 53.41159 | -6.68790 | 3244 ft | 213 kts | 3° |
| 2026-05-06 22:45 | 53.42594 | -6.68594 | 3014 ft | 199 kts | 3° |
| 2026-05-06 22:45 | 53.43911 | -6.68176 | 2925 ft | 192 kts | 25° |
| 2026-05-06 22:45 | 53.44921 | -6.66738 | 2948 ft | 193 kts | 56° |
| 2026-05-06 22:46 | 53.45401 | -6.64658 | 2992 ft | 192 kts | 84° |
| 2026-05-06 22:46 | 53.45420 | -6.62460 | 3014 ft | 191 kts | 94° |
| 2026-05-06 22:46 | 53.45359 | -6.60225 | 3004 ft | 190 kts | 95° |
| 2026-05-06 22:46 | 53.45295 | -6.58006 | 2996 ft | 191 kts | 94° |
| 2026-05-06 22:47 | 53.45219 | -6.55782 | 2988 ft | 189 kts | 96° |
| 2026-05-06 22:47 | 53.45130 | -6.53729 | 2967 ft | 164 kts | 97° |
| 2026-05-06 22:47 | 53.45034 | -6.51851 | 2976 ft | 159 kts | 96° |
| 2026-05-06 22:47 | 53.44935 | -6.50006 | 2781 ft | 157 kts | 97° |
| 2026-05-06 22:48 | 53.44835 | -6.48185 | 2609 ft | 157 kts | 97° |
| 2026-05-06 22:48 | 53.44735 | -6.46370 | 2405 ft | 156 kts | 98° |
| 2026-05-06 22:48 | 53.44635 | -6.44565 | 2210 ft | 155 kts | 98° |
| 2026-05-06 22:48 | 53.44535 | -6.42766 | 1997 ft | 154 kts | 98° |
| 2026-05-06 22:49 | 53.44435 | -6.40982 | 1793 ft | 154 kts | 98° |
| 2026-05-06 22:49 | 53.44336 | -6.39205 | 1627 ft | 152 kts | 98° |
| 2026-05-06 22:49 | 53.44238 | -6.37437 | 1391 ft | 152 kts | 98° |
| 2026-05-06 22:49 | 53.44148 | -6.35706 | 1188 ft | 150 kts | 98° |
| 2026-05-06 22:50 | 53.44068 | -6.33964 | 922 ft | 149 kts | 98° |
| 2026-05-06 22:50 | 53.43954 | -6.32246 | 720 ft | 148 kts | 99° |
| 2026-05-06 22:50 | 53.43852 | -6.30534 | 535 ft | 146 kts | 96° |
| 2026-05-06 22:50 | 53.43765 | -6.28829 | 374 ft | 146 kts | 95° |
| 2026-05-06 22:51 | 53.43672 | -6.27198 | 223 ft | 133 kts | 96° |
| 2026-05-06 22:51 | 53.43596 | -6.25877 | 215 ft | 85 kts | 95° |
| 2026-05-06 22:51 | 53.43555 | -6.25129 | 214 ft | 42 kts | 96° |
| 2026-05-06 22:51 | 53.43537 | -6.24787 | 215 ft | 25 kts | 95° |
| 2026-05-06 22:52 | 53.43522 | -6.24592 | 216 ft | 11 kts | 113° |
| 2026-05-06 22:52 | 53.43480 | -6.24541 | 218 ft | 7 kts | 186° |
| 2026-05-06 22:52 | 53.43425 | -6.24555 | 214 ft | 1 kts | 188° |
| 2026-05-06 22:52 | 53.43422 | -6.24555 | 214 ft | 0 kts | 188° |
| 2026-05-06 22:54 | 53.43418 | -6.24556 | 214 ft | 2 kts | 188° |
| 2026-05-06 22:54 | 53.43389 | -6.24557 | 219 ft | 6 kts | 167° |
| 2026-05-06 22:54 | 53.43353 | -6.24503 | 214 ft | 8 kts | 114° |
| 2026-05-06 22:54 | 53.43325 | -6.24411 | 217 ft | 10 kts | 152° |
| 2026-05-06 22:55 | 53.43254 | -6.24410 | 216 ft | 8 kts | 185° |
| 2026-05-06 22:55 | 53.43199 | -6.24438 | 213 ft | 9 kts | 230° |
| 2026-05-06 22:55 | 53.43192 | -6.24550 | 213 ft | 7 kts | 274° |
| 2026-05-06 22:55 | 53.43197 | -6.24633 | 213 ft | 8 kts | 275° |
| 2026-05-06 22:56 | 53.43200 | -6.24696 | 221 ft | 3 kts | 275° |
| 2026-05-06 22:56 | 53.43201 | -6.24705 | 221 ft | 0 kts | 275° |
| 2026-05-06 22:56 | 53.43200 | -6.24710 | 213 ft | 0 kts | 254° |
| 2026-05-06 22:56 | 53.43199 | -6.24712 | 213 ft | 1 kts | 240° |
| 2026-05-06 22:57 | 53.43191 | -6.24719 | 213 ft | 2 kts | 196° |
| 2026-05-06 22:57 | 53.43171 | -6.24720 | 213 ft | 4 kts | 181° |
| 2026-05-06 22:57 | 53.43146 | -6.24722 | 220 ft | 2 kts | 183° |
| 2026-05-06 22:57 | 53.43132 | -6.24714 | 213 ft | 1 kts | 148° |
| 2026-05-06 22:58 | 53.43116 | -6.24703 | 215 ft | 3 kts | 167° |
| 2026-05-06 22:58 | 53.43107 | -6.24701 | 213 ft | 2 kts | 174° |
| 2026-05-06 22:58 | 53.43100 | -6.24700 | 213 ft | 0 kts | 178° |
| 2026-05-06 22:58 | 53.43097 | -6.24700 | 213 ft | 0 kts | 180° |
| 2026-05-06 22:59 | 53.43094 | -6.24700 | 213 ft | 0 kts | 181° |
| 2026-05-06 22:59 | 53.43094 | -6.24701 | 213 ft | 0 kts | 181° |